sensor_id;sensor_type;location;lat;lon;timestamp;temperature;humidity
35962;DHT22;22044;48.298;10.008;2022-09-27T00:00:58;10.40;99.90
35962;DHT22;22044;48.298;10.008;2022-09-27T00:03:25;10.40;99.90
35962;DHT22;22044;48.298;10.008;2022-09-27T00:06:00;10.30;99.90
35962;DHT22;22044;48.298;10.008;2022-09-27T00:08:30;10.30;99.90
35962;DHT22;22044;48.298;10.008;2022-09-27T00:10:59;10.30;99.90
35962;DHT22;22044;48.298;10.008;2022-09-27T00:13:29;10.20;99.90
35962;DHT22;22044;48.298;10.008;2022-09-27T00:15:56;10.10;99.90
35962;DHT22;22044;48.298;10.008;2022-09-27T00:18:24;10.20;99.90
35962;DHT22;22044;48.298;10.008;2022-09-27T00:20:51;10.20;99.90
35962;DHT22;22044;48.298;10.008;2022-09-27T00:23:18;10.10;99.90
35962;DHT22;22044;48.298;10.008;2022-09-27T00:25:54;10.10;99.90
35962;DHT22;22044;48.298;10.008;2022-09-27T00:28:22;10.00;99.90
35962;DHT22;22044;48.298;10.008;2022-09-27T00:30:51;10.00;99.90
35962;DHT22;22044;48.298;10.008;2022-09-27T00:33:19;10.00;99.90
35962;DHT22;22044;48.298;10.008;2022-09-27T00:35:46;9.80;99.90
35962;DHT22;22044;48.298;10.008;2022-09-27T00:38:14;9.80;99.90
35962;DHT22;22044;48.298;10.008;2022-09-27T00:40:41;9.80;99.90
35962;DHT22;22044;48.298;10.008;2022-09-27T00:43:15;9.70;99.90
35962;DHT22;22044;48.298;10.008;2022-09-27T00:45:47;9.70;99.90
35962;DHT22;22044;48.298;10.008;2022-09-27T00:48:17;9.70;99.90
35962;DHT22;22044;48.298;10.008;2022-09-27T00:50:49;9.60;99.90
35962;DHT22;22044;48.298;10.008;2022-09-27T00:53:23;9.50;99.90
35962;DHT22;22044;48.298;10.008;2022-09-27T00:55:56;9.50;99.90
35962;DHT22;22044;48.298;10.008;2022-09-27T00:58:27;9.50;99.90
35962;DHT22;22044;48.298;10.008;2022-09-27T01:00:57;9.60;99.90
35962;DHT22;22044;48.298;10.008;2022-09-27T01:03:31;9.40;99.90
35962;DHT22;22044;48.298;10.008;2022-09-27T01:06:00;9.20;99.90
35962;DHT22;22044;48.298;10.008;2022-09-27T01:08:28;9.30;99.90
35962;DHT22;22044;48.298;10.008;2022-09-27T01:11:08;9.20;99.90
35962;DHT22;22044;48.298;10.008;2022-09-27T01:13:42;9.20;99.90
35962;DHT22;22044;48.298;10.008;2022-09-27T01:16:17;9.20;99.90
35962;DHT22;22044;48.298;10.008;2022-09-27T01:18:57;9.10;99.90
35962;DHT22;22044;48.298;10.008;2022-09-27T01:21:40;9.20;99.90
35962;DHT22;22044;48.298;10.008;2022-09-27T01:24:26;9.20;99.90
35962;DHT22;22044;48.298;10.008;2022-09-27T01:27:16;9.00;99.90
35962;DHT22;22044;48.298;10.008;2022-09-27T01:30:08;9.00;99.90
35962;DHT22;22044;48.298;10.008;2022-09-27T01:32:42;9.00;99.90
35962;DHT22;22044;48.298;10.008;2022-09-27T01:35:20;9.10;99.90
35962;DHT22;22044;48.298;10.008;2022-09-27T01:37:56;9.10;99.90
35962;DHT22;22044;48.298;10.008;2022-09-27T01:40:32;9.10;99.90
35962;DHT22;22044;48.298;10.008;2022-09-27T01:43:25;9.00;99.90
35962;DHT22;22044;48.298;10.008;2022-09-27T01:46:00;9.00;99.90
35962;DHT22;22044;48.298;10.008;2022-09-27T01:48:50;9.00;99.90
35962;DHT22;22044;48.298;10.008;2022-09-27T01:51:24;9.00;99.90
35962;DHT22;22044;48.298;10.008;2022-09-27T01:53:57;9.00;99.90
35962;DHT22;22044;48.298;10.008;2022-09-27T01:56:48;9.10;99.90
35962;DHT22;22044;48.298;10.008;2022-09-27T01:59:25;9.10;99.90
35962;DHT22;22044;48.298;10.008;2022-09-27T02:02:20;9.10;99.90
35962;DHT22;22044;48.298;10.008;2022-09-27T02:05:18;9.10;99.90
35962;DHT22;22044;48.298;10.008;2022-09-27T02:07:54;9.20;99.90
35962;DHT22;22044;48.298;10.008;2022-09-27T02:10:26;9.20;99.90
35962;DHT22;22044;48.298;10.008;2022-09-27T02:13:00;9.10;99.90
35962;DHT22;22044;48.298;10.008;2022-09-27T02:15:33;9.20;99.90
35962;DHT22;22044;48.298;10.008;2022-09-27T02:18:27;9.20;99.90
35962;DHT22;22044;48.298;10.008;2022-09-27T02:20:58;9.10;99.90
35962;DHT22;22044;48.298;10.008;2022-09-27T02:23:34;9.10;99.90
35962;DHT22;22044;48.298;10.008;2022-09-27T02:26:13;9.10;99.90
35962;DHT22;22044;48.298;10.008;2022-09-27T02:28:43;9.10;99.90
35962;DHT22;22044;48.298;10.008;2022-09-27T02:31:18;9.00;99.90
35962;DHT22;22044;48.298;10.008;2022-09-27T02:33:51;9.10;99.90
35962;DHT22;22044;48.298;10.008;2022-09-27T02:36:20;9.20;99.90
35962;DHT22;22044;48.298;10.008;2022-09-27T02:38:49;9.20;99.90
35962;DHT22;22044;48.298;10.008;2022-09-27T02:41:21;9.20;99.90
35962;DHT22;22044;48.298;10.008;2022-09-27T02:43:52;9.20;99.90
35962;DHT22;22044;48.298;10.008;2022-09-27T02:46:36;9.20;99.90
35962;DHT22;22044;48.298;10.008;2022-09-27T02:49:14;9.30;99.90
35962;DHT22;22044;48.298;10.008;2022-09-27T02:52:08;9.30;99.90
35962;DHT22;22044;48.298;10.008;2022-09-27T02:54:43;9.30;99.90
35962;DHT22;22044;48.298;10.008;2022-09-27T02:57:55;9.30;99.90
35962;DHT22;22044;48.298;10.008;2022-09-27T03:00:40;9.20;99.90
35962;DHT22;22044;48.298;10.008;2022-09-27T03:03:35;9.20;99.90
35962;DHT22;22044;48.298;10.008;2022-09-27T03:06:07;9.30;99.90
35962;DHT22;22044;48.298;10.008;2022-09-27T03:08:36;9.30;99.90
35962;DHT22;22044;48.298;10.008;2022-09-27T03:11:06;9.30;99.90
35962;DHT22;22044;48.298;10.008;2022-09-27T03:13:34;9.20;99.90
35962;DHT22;22044;48.298;10.008;2022-09-27T03:16:06;9.20;99.90
35962;DHT22;22044;48.298;10.008;2022-09-27T03:18:51;9.30;99.90
35962;DHT22;22044;48.298;10.008;2022-09-27T03:21:38;9.30;99.90
35962;DHT22;22044;48.298;10.008;2022-09-27T03:24:06;9.30;99.90
35962;DHT22;22044;48.298;10.008;2022-09-27T03:26:34;9.30;99.90
35962;DHT22;22044;48.298;10.008;2022-09-27T03:29:01;9.40;99.90
35962;DHT22;22044;48.298;10.008;2022-09-27T03:31:28;9.40;99.90
35962;DHT22;22044;48.298;10.008;2022-09-27T03:34:19;9.40;99.90
35962;DHT22;22044;48.298;10.008;2022-09-27T03:36:48;9.40;99.90
35962;DHT22;22044;48.298;10.008;2022-09-27T03:39:15;9.40;99.90
35962;DHT22;22044;48.298;10.008;2022-09-27T03:41:42;9.30;99.90
35962;DHT22;22044;48.298;10.008;2022-09-27T03:44:10;9.30;99.90
35962;DHT22;22044;48.298;10.008;2022-09-27T03:46:37;9.40;99.90
35962;DHT22;22044;48.298;10.008;2022-09-27T03:49:04;9.40;99.90
35962;DHT22;22044;48.298;10.008;2022-09-27T03:51:31;9.50;99.90
35962;DHT22;22044;48.298;10.008;2022-09-27T03:54:00;9.50;99.90
35962;DHT22;22044;48.298;10.008;2022-09-27T03:56:28;9.50;99.90
35962;DHT22;22044;48.298;10.008;2022-09-27T03:58:55;9.50;99.90
35962;DHT22;22044;48.298;10.008;2022-09-27T04:01:23;9.50;99.90
35962;DHT22;22044;48.298;10.008;2022-09-27T04:03:55;9.50;99.90
35962;DHT22;22044;48.298;10.008;2022-09-27T04:06:32;9.40;99.90
35962;DHT22;22044;48.298;10.008;2022-09-27T04:09:02;9.50;99.90
35962;DHT22;22044;48.298;10.008;2022-09-27T04:11:47;9.50;99.90
35962;DHT22;22044;48.298;10.008;2022-09-27T04:14:15;9.50;99.90
35962;DHT22;22044;48.298;10.008;2022-09-27T04:17:02;9.50;99.90
35962;DHT22;22044;48.298;10.008;2022-09-27T04:19:50;9.50;99.90
35962;DHT22;22044;48.298;10.008;2022-09-27T04:22:18;9.50;99.90
35962;DHT22;22044;48.298;10.008;2022-09-27T04:24:46;9.50;99.90
35962;DHT22;22044;48.298;10.008;2022-09-27T04:27:23;9.50;99.90
35962;DHT22;22044;48.298;10.008;2022-09-27T04:29:50;9.50;99.90
35962;DHT22;22044;48.298;10.008;2022-09-27T04:32:47;9.50;99.90
35962;DHT22;22044;48.298;10.008;2022-09-27T04:35:33;9.50;99.90
35962;DHT22;22044;48.298;10.008;2022-09-27T04:38:17;9.40;99.90
35962;DHT22;22044;48.298;10.008;2022-09-27T04:40:50;9.40;99.90
35962;DHT22;22044;48.298;10.008;2022-09-27T04:43:17;9.40;99.90
35962;DHT22;22044;48.298;10.008;2022-09-27T04:45:45;9.40;99.90
35962;DHT22;22044;48.298;10.008;2022-09-27T04:48:13;9.40;99.90
35962;DHT22;22044;48.298;10.008;2022-09-27T04:50:40;9.40;99.90
35962;DHT22;22044;48.298;10.008;2022-09-27T04:53:12;9.40;99.90
35962;DHT22;22044;48.298;10.008;2022-09-27T04:55:43;9.30;99.90
35962;DHT22;22044;48.298;10.008;2022-09-27T04:58:12;9.20;99.90
35962;DHT22;22044;48.298;10.008;2022-09-27T05:00:40;9.20;99.90
35962;DHT22;22044;48.298;10.008;2022-09-27T05:03:27;9.10;99.90
35962;DHT22;22044;48.298;10.008;2022-09-27T05:05:57;9.10;99.90
35962;DHT22;22044;48.298;10.008;2022-09-27T05:08:25;9.10;99.90
35962;DHT22;22044;48.298;10.008;2022-09-27T05:11:12;9.00;99.90
35962;DHT22;22044;48.298;10.008;2022-09-27T05:13:43;9.00;99.90
35962;DHT22;22044;48.298;10.008;2022-09-27T05:16:11;9.00;99.90
35962;DHT22;22044;48.298;10.008;2022-09-27T05:19:07;9.00;99.90
35962;DHT22;22044;48.298;10.008;2022-09-27T05:21:53;9.00;99.90
35962;DHT22;22044;48.298;10.008;2022-09-27T05:24:20;9.00;99.90
35962;DHT22;22044;48.298;10.008;2022-09-27T05:26:47;8.90;99.90
35962;DHT22;22044;48.298;10.008;2022-09-27T05:29:17;8.90;99.90
35962;DHT22;22044;48.298;10.008;2022-09-27T05:31:53;9.00;99.90
35962;DHT22;22044;48.298;10.008;2022-09-27T05:34:20;8.90;99.90
35962;DHT22;22044;48.298;10.008;2022-09-27T05:36:56;8.90;99.90
35962;DHT22;22044;48.298;10.008;2022-09-27T05:39:25;8.90;99.90
35962;DHT22;22044;48.298;10.008;2022-09-27T05:41:52;8.80;99.90
35962;DHT22;22044;48.298;10.008;2022-09-27T05:44:21;8.80;99.90
35962;DHT22;22044;48.298;10.008;2022-09-27T05:46:55;8.80;99.90
35962;DHT22;22044;48.298;10.008;2022-09-27T05:49:23;8.80;99.90
35962;DHT22;22044;48.298;10.008;2022-09-27T05:51:50;8.90;99.90
35962;DHT22;22044;48.298;10.008;2022-09-27T05:54:17;8.90;99.90
35962;DHT22;22044;48.298;10.008;2022-09-27T05:56:44;8.80;99.90
35962;DHT22;22044;48.298;10.008;2022-09-27T05:59:24;8.80;99.90
35962;DHT22;22044;48.298;10.008;2022-09-27T06:02:27;8.80;99.90
35962;DHT22;22044;48.298;10.008;2022-09-27T06:05:13;8.80;99.90
35962;DHT22;22044;48.298;10.008;2022-09-27T06:07:59;8.80;99.90
35962;DHT22;22044;48.298;10.008;2022-09-27T06:10:33;8.70;99.90
35962;DHT22;22044;48.298;10.008;2022-09-27T06:13:04;8.60;99.90
35962;DHT22;22044;48.298;10.008;2022-09-27T06:15:36;8.50;99.90
35962;DHT22;22044;48.298;10.008;2022-09-27T06:18:05;8.50;99.90
35962;DHT22;22044;48.298;10.008;2022-09-27T06:20:35;8.40;99.90
35962;DHT22;22044;48.298;10.008;2022-09-27T06:23:04;8.40;99.90
35962;DHT22;22044;48.298;10.008;2022-09-27T06:25:32;8.30;99.90
35962;DHT22;22044;48.298;10.008;2022-09-27T06:28:20;8.20;99.90
35962;DHT22;22044;48.298;10.008;2022-09-27T06:30:53;8.20;99.90
35962;DHT22;22044;48.298;10.008;2022-09-27T06:33:37;8.20;99.90
35962;DHT22;22044;48.298;10.008;2022-09-27T06:36:05;8.20;99.90
35962;DHT22;22044;48.298;10.008;2022-09-27T06:38:35;8.20;99.90
35962;DHT22;22044;48.298;10.008;2022-09-27T06:41:10;8.20;99.90
35962;DHT22;22044;48.298;10.008;2022-09-27T06:44:04;8.20;99.90
35962;DHT22;22044;48.298;10.008;2022-09-27T06:47:11;8.30;99.90
35962;DHT22;22044;48.298;10.008;2022-09-27T06:50:08;8.30;99.90
35962;DHT22;22044;48.298;10.008;2022-09-27T06:52:37;8.30;99.90
35962;DHT22;22044;48.298;10.008;2022-09-27T06:55:13;8.20;99.90
35962;DHT22;22044;48.298;10.008;2022-09-27T06:57:41;8.20;99.90
35962;DHT22;22044;48.298;10.008;2022-09-27T07:00:26;8.30;99.90
35962;DHT22;22044;48.298;10.008;2022-09-27T07:03:18;8.30;99.90
35962;DHT22;22044;48.298;10.008;2022-09-27T07:06:21;8.30;99.90
35962;DHT22;22044;48.298;10.008;2022-09-27T07:09:04;8.20;99.90
35962;DHT22;22044;48.298;10.008;2022-09-27T07:11:34;8.20;99.90
35962;DHT22;22044;48.298;10.008;2022-09-27T07:14:02;8.20;99.90
35962;DHT22;22044;48.298;10.008;2022-09-27T07:16:30;8.20;99.90
35962;DHT22;22044;48.298;10.008;2022-09-27T07:19:02;8.30;99.90
35962;DHT22;22044;48.298;10.008;2022-09-27T07:21:32;8.20;99.90
35962;DHT22;22044;48.298;10.008;2022-09-27T07:24:00;8.30;99.90
35962;DHT22;22044;48.298;10.008;2022-09-27T07:26:27;8.30;99.90
35962;DHT22;22044;48.298;10.008;2022-09-27T07:28:55;8.30;99.90
35962;DHT22;22044;48.298;10.008;2022-09-27T07:31:25;8.50;99.90
35962;DHT22;22044;48.298;10.008;2022-09-27T07:33:53;8.50;99.90
35962;DHT22;22044;48.298;10.008;2022-09-27T07:36:21;8.60;99.90
35962;DHT22;22044;48.298;10.008;2022-09-27T07:38:49;8.70;99.90
35962;DHT22;22044;48.298;10.008;2022-09-27T07:41:18;8.70;99.90
35962;DHT22;22044;48.298;10.008;2022-09-27T07:43:45;8.80;99.90
35962;DHT22;22044;48.298;10.008;2022-09-27T07:46:13;8.80;99.90
35962;DHT22;22044;48.298;10.008;2022-09-27T07:48:53;8.90;99.90
35962;DHT22;22044;48.298;10.008;2022-09-27T07:51:41;8.90;99.90
35962;DHT22;22044;48.298;10.008;2022-09-27T07:54:25;9.10;99.90
35962;DHT22;22044;48.298;10.008;2022-09-27T07:57:04;9.20;99.90
35962;DHT22;22044;48.298;10.008;2022-09-27T07:59:39;9.10;99.90
35962;DHT22;22044;48.298;10.008;2022-09-27T08:02:13;9.00;99.90
35962;DHT22;22044;48.298;10.008;2022-09-27T08:04:42;9.00;99.90
35962;DHT22;22044;48.298;10.008;2022-09-27T08:07:13;9.00;99.90
35962;DHT22;22044;48.298;10.008;2022-09-27T08:09:43;9.00;99.90
35962;DHT22;22044;48.298;10.008;2022-09-27T08:12:11;9.00;99.90
35962;DHT22;22044;48.298;10.008;2022-09-27T08:14:39;9.00;99.90
35962;DHT22;22044;48.298;10.008;2022-09-27T08:17:09;9.10;99.90
35962;DHT22;22044;48.298;10.008;2022-09-27T08:19:55;9.20;99.90
35962;DHT22;22044;48.298;10.008;2022-09-27T08:22:47;9.30;99.90
35962;DHT22;22044;48.298;10.008;2022-09-27T08:25:40;9.30;99.90
35962;DHT22;22044;48.298;10.008;2022-09-27T08:28:34;9.30;99.90
35962;DHT22;22044;48.298;10.008;2022-09-27T08:31:16;9.30;99.90
35962;DHT22;22044;48.298;10.008;2022-09-27T08:33:43;9.30;99.90
35962;DHT22;22044;48.298;10.008;2022-09-27T08:36:14;9.30;99.90
35962;DHT22;22044;48.298;10.008;2022-09-27T08:38:43;9.40;99.90
35962;DHT22;22044;48.298;10.008;2022-09-27T08:41:21;9.40;99.90
35962;DHT22;22044;48.298;10.008;2022-09-27T08:44:13;9.40;99.90
35962;DHT22;22044;48.298;10.008;2022-09-27T08:47:01;9.50;99.90
35962;DHT22;22044;48.298;10.008;2022-09-27T08:49:32;9.50;99.90
35962;DHT22;22044;48.298;10.008;2022-09-27T08:52:04;9.50;99.90
35962;DHT22;22044;48.298;10.008;2022-09-27T08:54:38;9.50;99.90
35962;DHT22;22044;48.298;10.008;2022-09-27T08:57:10;9.40;99.90
35962;DHT22;22044;48.298;10.008;2022-09-27T08:59:40;9.40;99.90
35962;DHT22;22044;48.298;10.008;2022-09-27T09:02:15;9.40;99.90
35962;DHT22;22044;48.298;10.008;2022-09-27T09:04:48;9.40;99.90
35962;DHT22;22044;48.298;10.008;2022-09-27T09:07:25;9.50;99.90
35962;DHT22;22044;48.298;10.008;2022-09-27T09:10:05;9.40;99.90
35962;DHT22;22044;48.298;10.008;2022-09-27T09:12:52;9.40;99.90
35962;DHT22;22044;48.298;10.008;2022-09-27T09:15:49;9.50;99.90
35962;DHT22;22044;48.298;10.008;2022-09-27T09:18:41;9.50;99.90
35962;DHT22;22044;48.298;10.008;2022-09-27T09:21:22;9.50;99.90
35962;DHT22;22044;48.298;10.008;2022-09-27T09:24:06;9.50;99.90
35962;DHT22;22044;48.298;10.008;2022-09-27T09:26:42;9.50;99.90
35962;DHT22;22044;48.298;10.008;2022-09-27T09:29:24;9.60;99.90
35962;DHT22;22044;48.298;10.008;2022-09-27T09:31:57;9.50;99.90
35962;DHT22;22044;48.298;10.008;2022-09-27T09:34:33;9.30;99.90
35962;DHT22;22044;48.298;10.008;2022-09-27T09:37:02;9.20;99.90
35962;DHT22;22044;48.298;10.008;2022-09-27T09:39:34;9.10;99.90
35962;DHT22;22044;48.298;10.008;2022-09-27T09:42:10;9.10;99.90
35962;DHT22;22044;48.298;10.008;2022-09-27T09:44:45;9.10;99.90
35962;DHT22;22044;48.298;10.008;2022-09-27T09:47:23;9.00;99.90
35962;DHT22;22044;48.298;10.008;2022-09-27T09:49:54;9.00;99.90
35962;DHT22;22044;48.298;10.008;2022-09-27T09:52:35;9.00;99.90
35962;DHT22;22044;48.298;10.008;2022-09-27T09:55:12;8.90;99.90
35962;DHT22;22044;48.298;10.008;2022-09-27T09:57:52;8.80;99.90
35962;DHT22;22044;48.298;10.008;2022-09-27T10:00:25;8.80;99.90
35962;DHT22;22044;48.298;10.008;2022-09-27T10:02:54;8.60;99.90
35962;DHT22;22044;48.298;10.008;2022-09-27T10:05:25;8.50;99.90
35962;DHT22;22044;48.298;10.008;2022-09-27T10:08:01;8.50;99.90
35962;DHT22;22044;48.298;10.008;2022-09-27T10:10:30;8.60;99.90
35962;DHT22;22044;48.298;10.008;2022-09-27T10:13:01;8.60;99.90
35962;DHT22;22044;48.298;10.008;2022-09-27T10:15:33;8.60;99.90
35962;DHT22;22044;48.298;10.008;2022-09-27T10:18:00;8.60;99.90
35962;DHT22;22044;48.298;10.008;2022-09-27T10:20:31;8.60;99.90
35962;DHT22;22044;48.298;10.008;2022-09-27T10:23:04;8.60;99.90
35962;DHT22;22044;48.298;10.008;2022-09-27T10:25:54;8.60;99.90
35962;DHT22;22044;48.298;10.008;2022-09-27T10:28:44;8.70;99.90
35962;DHT22;22044;48.298;10.008;2022-09-27T10:31:19;8.80;99.90
35962;DHT22;22044;48.298;10.008;2022-09-27T10:34:26;9.00;99.90
35962;DHT22;22044;48.298;10.008;2022-09-27T10:37:08;9.10;99.90
35962;DHT22;22044;48.298;10.008;2022-09-27T10:39:52;9.20;99.90
35962;DHT22;22044;48.298;10.008;2022-09-27T10:42:29;9.30;99.90
35962;DHT22;22044;48.298;10.008;2022-09-27T10:45:21;9.30;99.90
35962;DHT22;22044;48.298;10.008;2022-09-27T10:47:57;9.40;99.90
35962;DHT22;22044;48.298;10.008;2022-09-27T10:50:34;9.60;99.90
35962;DHT22;22044;48.298;10.008;2022-09-27T10:53:19;9.70;99.90
35962;DHT22;22044;48.298;10.008;2022-09-27T10:55:56;9.80;99.90
35962;DHT22;22044;48.298;10.008;2022-09-27T10:58:33;10.20;99.90
35962;DHT22;22044;48.298;10.008;2022-09-27T11:01:06;10.30;99.90
35962;DHT22;22044;48.298;10.008;2022-09-27T11:03:58;10.30;99.90
35962;DHT22;22044;48.298;10.008;2022-09-27T11:06:31;10.30;99.90
35962;DHT22;22044;48.298;10.008;2022-09-27T11:09:16;10.30;99.90
35962;DHT22;22044;48.298;10.008;2022-09-27T11:11:46;10.30;99.90
35962;DHT22;22044;48.298;10.008;2022-09-27T11:14:27;10.40;99.90
35962;DHT22;22044;48.298;10.008;2022-09-27T11:17:17;10.60;99.90
35962;DHT22;22044;48.298;10.008;2022-09-27T11:20:09;10.80;99.90
35962;DHT22;22044;48.298;10.008;2022-09-27T11:23:04;10.80;99.90
35962;DHT22;22044;48.298;10.008;2022-09-27T11:25:42;10.70;99.90
35962;DHT22;22044;48.298;10.008;2022-09-27T11:28:21;10.60;99.90
35962;DHT22;22044;48.298;10.008;2022-09-27T11:31:00;10.70;99.90
35962;DHT22;22044;48.298;10.008;2022-09-27T11:33:59;10.80;99.90
35962;DHT22;22044;48.298;10.008;2022-09-27T11:36:47;11.00;99.90
35962;DHT22;22044;48.298;10.008;2022-09-27T11:39:26;11.00;99.90
35962;DHT22;22044;48.298;10.008;2022-09-27T11:42:09;11.10;99.90
35962;DHT22;22044;48.298;10.008;2022-09-27T11:44:56;11.30;99.90
35962;DHT22;22044;48.298;10.008;2022-09-27T11:47:37;11.20;99.90
35962;DHT22;22044;48.298;10.008;2022-09-27T11:50:49;11.10;99.90
35962;DHT22;22044;48.298;10.008;2022-09-27T11:53:34;11.10;99.90
35962;DHT22;22044;48.298;10.008;2022-09-27T11:56:19;11.10;99.90
35962;DHT22;22044;48.298;10.008;2022-09-27T11:58:58;11.10;99.90
35962;DHT22;22044;48.298;10.008;2022-09-27T12:01:34;11.20;99.90
35962;DHT22;22044;48.298;10.008;2022-09-27T12:04:34;11.40;99.90
35962;DHT22;22044;48.298;10.008;2022-09-27T12:07:12;11.70;99.90
35962;DHT22;22044;48.298;10.008;2022-09-27T12:09:47;11.70;99.90
35962;DHT22;22044;48.298;10.008;2022-09-27T12:12:19;11.70;99.90
35962;DHT22;22044;48.298;10.008;2022-09-27T12:14:52;11.60;99.90
35962;DHT22;22044;48.298;10.008;2022-09-27T12:17:24;11.50;99.90
35962;DHT22;22044;48.298;10.008;2022-09-27T12:19:55;11.50;99.90
35962;DHT22;22044;48.298;10.008;2022-09-27T12:22:53;11.50;99.90
35962;DHT22;22044;48.298;10.008;2022-09-27T12:25:28;11.60;99.90
35962;DHT22;22044;48.298;10.008;2022-09-27T12:28:06;11.70;99.90
35962;DHT22;22044;48.298;10.008;2022-09-27T12:30:39;11.70;99.90
35962;DHT22;22044;48.298;10.008;2022-09-27T12:33:12;11.60;99.90
35962;DHT22;22044;48.298;10.008;2022-09-27T12:35:46;11.60;99.90
35962;DHT22;22044;48.298;10.008;2022-09-27T12:38:20;11.50;99.90
35962;DHT22;22044;48.298;10.008;2022-09-27T12:40:50;11.70;99.90
35962;DHT22;22044;48.298;10.008;2022-09-27T12:43:26;11.50;99.90
35962;DHT22;22044;48.298;10.008;2022-09-27T12:46:09;11.70;99.90
35962;DHT22;22044;48.298;10.008;2022-09-27T12:48:46;11.80;99.90
35962;DHT22;22044;48.298;10.008;2022-09-27T12:51:18;11.90;99.90
35962;DHT22;22044;48.298;10.008;2022-09-27T12:54:03;12.00;99.90
35962;DHT22;22044;48.298;10.008;2022-09-27T12:56:45;12.10;99.90
35962;DHT22;22044;48.298;10.008;2022-09-27T12:59:34;11.90;99.90
35962;DHT22;22044;48.298;10.008;2022-09-27T13:05:26;11.70;99.90
35962;DHT22;22044;48.298;10.008;2022-09-27T13:08:14;11.60;99.90
35962;DHT22;22044;48.298;10.008;2022-09-27T13:10:50;11.70;99.90
35962;DHT22;22044;48.298;10.008;2022-09-27T13:13:25;11.50;99.90
35962;DHT22;22044;48.298;10.008;2022-09-27T13:15:57;11.40;99.90
35962;DHT22;22044;48.298;10.008;2022-09-27T13:24:43;11.50;99.90
35962;DHT22;22044;48.298;10.008;2022-09-27T13:27:38;11.50;99.90
35962;DHT22;22044;48.298;10.008;2022-09-27T13:36:15;11.50;99.90
35962;DHT22;22044;48.298;10.008;2022-09-27T13:39:03;11.40;99.90
35962;DHT22;22044;48.298;10.008;2022-09-27T13:41:56;11.40;99.90
35962;DHT22;22044;48.298;10.008;2022-09-27T13:44:46;11.20;99.90
35962;DHT22;22044;48.298;10.008;2022-09-27T13:47:28;11.30;99.90
35962;DHT22;22044;48.298;10.008;2022-09-27T13:50:17;11.20;99.90
35962;DHT22;22044;48.298;10.008;2022-09-27T13:52:59;11.10;99.90
35962;DHT22;22044;48.298;10.008;2022-09-27T13:55:45;11.10;99.90
35962;DHT22;22044;48.298;10.008;2022-09-27T13:58:34;10.90;99.90
35962;DHT22;22044;48.298;10.008;2022-09-27T14:01:25;10.80;99.90
35962;DHT22;22044;48.298;10.008;2022-09-27T14:03:59;10.70;99.90
35962;DHT22;22044;48.298;10.008;2022-09-27T14:06:31;10.70;99.90
35962;DHT22;22044;48.298;10.008;2022-09-27T14:09:04;10.60;99.90
35962;DHT22;22044;48.298;10.008;2022-09-27T14:11:36;10.50;99.90
35962;DHT22;22044;48.298;10.008;2022-09-27T14:14:07;10.50;99.90
35962;DHT22;22044;48.298;10.008;2022-09-27T14:16:45;10.30;99.90
35962;DHT22;22044;48.298;10.008;2022-09-27T14:19:15;10.10;99.90
35962;DHT22;22044;48.298;10.008;2022-09-27T14:21:44;10.00;99.90
35962;DHT22;22044;48.298;10.008;2022-09-27T14:24:28;10.00;99.90
35962;DHT22;22044;48.298;10.008;2022-09-27T14:27:10;9.90;99.90
35962;DHT22;22044;48.298;10.008;2022-09-27T14:29:40;10.00;99.90
35962;DHT22;22044;48.298;10.008;2022-09-27T14:32:14;10.20;99.90
35962;DHT22;22044;48.298;10.008;2022-09-27T14:35:04;10.30;99.90
35962;DHT22;22044;48.298;10.008;2022-09-27T14:37:32;10.40;99.90
35962;DHT22;22044;48.298;10.008;2022-09-27T14:40:17;10.50;99.90
35962;DHT22;22044;48.298;10.008;2022-09-27T14:42:45;10.50;99.90
35962;DHT22;22044;48.298;10.008;2022-09-27T14:45:19;10.40;99.90
35962;DHT22;22044;48.298;10.008;2022-09-27T14:47:49;10.30;99.90
35962;DHT22;22044;48.298;10.008;2022-09-27T14:50:19;10.30;99.90
35962;DHT22;22044;48.298;10.008;2022-09-27T14:52:47;10.30;99.90
35962;DHT22;22044;48.298;10.008;2022-09-27T14:55:19;10.20;99.90
35962;DHT22;22044;48.298;10.008;2022-09-27T14:57:49;10.20;99.90
35962;DHT22;22044;48.298;10.008;2022-09-27T15:00:19;10.30;99.90
35962;DHT22;22044;48.298;10.008;2022-09-27T15:02:49;10.30;99.90
35962;DHT22;22044;48.298;10.008;2022-09-27T15:05:21;10.30;99.90
35962;DHT22;22044;48.298;10.008;2022-09-27T15:07:48;10.20;99.90
35962;DHT22;22044;48.298;10.008;2022-09-27T15:10:17;10.20;99.90
35962;DHT22;22044;48.298;10.008;2022-09-27T15:12:48;10.20;99.90
35962;DHT22;22044;48.298;10.008;2022-09-27T15:15:19;10.10;99.90
35962;DHT22;22044;48.298;10.008;2022-09-27T15:17:49;9.90;99.90
35962;DHT22;22044;48.298;10.008;2022-09-27T15:20:22;9.90;99.90
35962;DHT22;22044;48.298;10.008;2022-09-27T15:22:50;9.90;99.90
35962;DHT22;22044;48.298;10.008;2022-09-27T15:25:21;9.80;99.90
35962;DHT22;22044;48.298;10.008;2022-09-27T15:27:57;9.70;99.90
35962;DHT22;22044;48.298;10.008;2022-09-27T15:30:27;9.70;99.90
35962;DHT22;22044;48.298;10.008;2022-09-27T15:32:58;9.70;99.90
35962;DHT22;22044;48.298;10.008;2022-09-27T15:35:29;9.60;99.90
35962;DHT22;22044;48.298;10.008;2022-09-27T15:38:13;9.60;99.90
35962;DHT22;22044;48.298;10.008;2022-09-27T15:41:11;9.50;99.90
35962;DHT22;22044;48.298;10.008;2022-09-27T15:43:41;9.50;99.90
35962;DHT22;22044;48.298;10.008;2022-09-27T15:46:33;9.50;99.90
35962;DHT22;22044;48.298;10.008;2022-09-27T15:49:26;9.50;99.90
35962;DHT22;22044;48.298;10.008;2022-09-27T15:51:56;9.30;99.90
35962;DHT22;22044;48.298;10.008;2022-09-27T15:54:24;9.30;99.90
35962;DHT22;22044;48.298;10.008;2022-09-27T15:56:53;9.20;99.90
35962;DHT22;22044;48.298;10.008;2022-09-27T15:59:24;9.20;99.90
35962;DHT22;22044;48.298;10.008;2022-09-27T16:01:54;9.10;99.90
35962;DHT22;22044;48.298;10.008;2022-09-27T16:04:23;9.00;99.90
35962;DHT22;22044;48.298;10.008;2022-09-27T16:06:51;9.00;99.90
35962;DHT22;22044;48.298;10.008;2022-09-27T16:09:19;9.10;99.90
35962;DHT22;22044;48.298;10.008;2022-09-27T16:11:48;9.00;99.90
35962;DHT22;22044;48.298;10.008;2022-09-27T16:14:16;9.10;99.90
35962;DHT22;22044;48.298;10.008;2022-09-27T16:16:46;9.20;99.90
35962;DHT22;22044;48.298;10.008;2022-09-27T16:19:14;9.20;99.90
35962;DHT22;22044;48.298;10.008;2022-09-27T16:21:43;9.20;99.90
35962;DHT22;22044;48.298;10.008;2022-09-27T16:24:12;9.00;99.90
35962;DHT22;22044;48.298;10.008;2022-09-27T16:26:39;9.00;99.90
35962;DHT22;22044;48.298;10.008;2022-09-27T16:29:09;9.00;99.90
35962;DHT22;22044;48.298;10.008;2022-09-27T16:31:37;8.90;99.90
35962;DHT22;22044;48.298;10.008;2022-09-27T16:34:04;8.90;99.90
35962;DHT22;22044;48.298;10.008;2022-09-27T16:36:32;8.80;99.90
35962;DHT22;22044;48.298;10.008;2022-09-27T16:39:02;8.70;99.90